sensor_id;sensor_type;location;lat;lon;timestamp;P1;durP1;ratioP1;P2;durP2;ratioP2
9950;SDS011;24074;49.254;6.702;2023-12-20T00:01:46;6.00;;;4.63;;
9950;SDS011;24074;49.254;6.702;2023-12-20T00:04:12;6.97;;;5.30;;
9950;SDS011;24074;49.254;6.702;2023-12-20T00:06:37;6.50;;;5.60;;
9950;SDS011;24074;49.254;6.702;2023-12-20T00:09:03;5.83;;;5.10;;
9950;SDS011;24074;49.254;6.702;2023-12-20T00:11:28;5.80;;;5.30;;
9950;SDS011;24074;49.254;6.702;2023-12-20T00:13:54;5.67;;;4.93;;
9950;SDS011;24074;49.254;6.702;2023-12-20T00:16:20;6.03;;;5.40;;
9950;SDS011;24074;49.254;6.702;2023-12-20T00:18:45;6.53;;;5.10;;
9950;SDS011;24074;49.254;6.702;2023-12-20T00:21:11;6.20;;;4.93;;
9950;SDS011;24074;49.254;6.702;2023-12-20T00:23:36;6.50;;;4.63;;
9950;SDS011;24074;49.254;6.702;2023-12-20T00:26:02;6.87;;;4.63;;
9950;SDS011;24074;49.254;6.702;2023-12-20T00:28:28;5.70;;;4.60;;
9950;SDS011;24074;49.254;6.702;2023-12-20T00:30:53;5.07;;;4.47;;
9950;SDS011;24074;49.254;6.702;2023-12-20T00:33:19;6.60;;;4.57;;
9950;SDS011;24074;49.254;6.702;2023-12-20T00:35:44;6.83;;;4.73;;
9950;SDS011;24074;49.254;6.702;2023-12-20T00:38:10;5.20;;;4.70;;
9950;SDS011;24074;49.254;6.702;2023-12-20T00:40:36;4.97;;;4.47;;
9950;SDS011;24074;49.254;6.702;2023-12-20T00:43:02;5.07;;;4.50;;
9950;SDS011;24074;49.254;6.702;2023-12-20T00:45:28;5.53;;;4.53;;
9950;SDS011;24074;49.254;6.702;2023-12-20T00:47:53;5.23;;;4.33;;
9950;SDS011;24074;49.254;6.702;2023-12-20T00:50:19;4.53;;;4.10;;
9950;SDS011;24074;49.254;6.702;2023-12-20T00:52:46;4.90;;;4.40;;
9950;SDS011;24074;49.254;6.702;2023-12-20T00:55:12;4.60;;;4.20;;
9950;SDS011;24074;49.254;6.702;2023-12-20T00:57:38;5.33;;;4.83;;
9950;SDS011;24074;49.254;6.702;2023-12-20T01:00:04;5.30;;;4.60;;
9950;SDS011;24074;49.254;6.702;2023-12-20T01:02:30;5.07;;;4.57;;
9950;SDS011;24074;49.254;6.702;2023-12-20T01:04:56;4.87;;;4.37;;
9950;SDS011;24074;49.254;6.702;2023-12-20T01:07:22;4.63;;;4.23;;
9950;SDS011;24074;49.254;6.702;2023-12-20T01:09:47;4.40;;;4.00;;
9950;SDS011;24074;49.254;6.702;2023-12-20T01:12:13;5.00;;;4.40;;
9950;SDS011;24074;49.254;6.702;2023-12-20T01:14:38;4.80;;;4.30;;
9950;SDS011;24074;49.254;6.702;2023-12-20T01:17:04;4.60;;;4.20;;
9950;SDS011;24074;49.254;6.702;2023-12-20T01:19:30;4.27;;;3.87;;
9950;SDS011;24074;49.254;6.702;2023-12-20T01:21:56;4.53;;;4.13;;
9950;SDS011;24074;49.254;6.702;2023-12-20T01:24:21;4.80;;;4.33;;
9950;SDS011;24074;49.254;6.702;2023-12-20T01:26:47;4.70;;;4.20;;
9950;SDS011;24074;49.254;6.702;2023-12-20T01:29:13;4.40;;;4.00;;
9950;SDS011;24074;49.254;6.702;2023-12-20T01:31:39;4.57;;;4.10;;
9950;SDS011;24074;49.254;6.702;2023-12-20T01:34:05;4.43;;;4.03;;
9950;SDS011;24074;49.254;6.702;2023-12-20T01:36:31;5.13;;;3.87;;
9950;SDS011;24074;49.254;6.702;2023-12-20T01:38:56;5.47;;;3.80;;
9950;SDS011;24074;49.254;6.702;2023-12-20T01:41:22;4.00;;;3.60;;
9950;SDS011;24074;49.254;6.702;2023-12-20T01:43:48;4.20;;;3.80;;
9950;SDS011;24074;49.254;6.702;2023-12-20T01:46:14;4.20;;;3.80;;
9950;SDS011;24074;49.254;6.702;2023-12-20T01:48:40;4.33;;;3.90;;
9950;SDS011;24074;49.254;6.702;2023-12-20T01:51:06;4.37;;;3.97;;
9950;SDS011;24074;49.254;6.702;2023-12-20T01:53:32;5.07;;;4.03;;
9950;SDS011;24074;49.254;6.702;2023-12-20T01:55:58;4.20;;;3.80;;
9950;SDS011;24074;49.254;6.702;2023-12-20T01:58:24;4.40;;;3.80;;
9950;SDS011;24074;49.254;6.702;2023-12-20T02:00:50;4.03;;;3.63;;
9950;SDS011;24074;49.254;6.702;2023-12-20T02:03:16;3.93;;;3.53;;
9950;SDS011;24074;49.254;6.702;2023-12-20T02:05:42;4.33;;;3.93;;
9950;SDS011;24074;49.254;6.702;2023-12-20T02:08:10;4.80;;;4.30;;
9950;SDS011;24074;49.254;6.702;2023-12-20T02:10:36;5.57;;;4.33;;
9950;SDS011;24074;49.254;6.702;2023-12-20T02:13:02;4.80;;;4.30;;
9950;SDS011;24074;49.254;6.702;2023-12-20T02:15:29;4.70;;;4.23;;
9950;SDS011;24074;49.254;6.702;2023-12-20T02:17:55;5.17;;;4.67;;
9950;SDS011;24074;49.254;6.702;2023-12-20T02:20:20;5.10;;;4.60;;
9950;SDS011;24074;49.254;6.702;2023-12-20T02:22:46;5.43;;;4.93;;
9950;SDS011;24074;49.254;6.702;2023-12-20T02:25:12;5.53;;;4.93;;
9950;SDS011;24074;49.254;6.702;2023-12-20T02:27:37;5.60;;;5.00;;
9950;SDS011;24074;49.254;6.702;2023-12-20T02:30:04;5.70;;;5.10;;
9950;SDS011;24074;49.254;6.702;2023-12-20T02:32:30;5.30;;;4.80;;
9950;SDS011;24074;49.254;6.702;2023-12-20T02:34:57;5.30;;;4.80;;
9950;SDS011;24074;49.254;6.702;2023-12-20T02:37:23;5.90;;;5.30;;
9950;SDS011;24074;49.254;6.702;2023-12-20T02:39:49;5.93;;;5.33;;
9950;SDS011;24074;49.254;6.702;2023-12-20T02:42:15;6.90;;;5.53;;
9950;SDS011;24074;49.254;6.702;2023-12-20T02:44:40;6.17;;;5.43;;
9950;SDS011;24074;49.254;6.702;2023-12-20T02:47:06;6.57;;;5.87;;
9950;SDS011;24074;49.254;6.702;2023-12-20T02:49:34;6.77;;;6.07;;
9950;SDS011;24074;49.254;6.702;2023-12-20T02:52:00;7.63;;;6.20;;
9950;SDS011;24074;49.254;6.702;2023-12-20T02:54:25;6.37;;;5.77;;
9950;SDS011;24074;49.254;6.702;2023-12-20T02:56:51;7.73;;;6.13;;
9950;SDS011;24074;49.254;6.702;2023-12-20T02:59:16;7.07;;;6.37;;
9950;SDS011;24074;49.254;6.702;2023-12-20T03:01:43;7.90;;;6.33;;
9950;SDS011;24074;49.254;6.702;2023-12-20T03:04:09;7.03;;;6.33;;
9950;SDS011;24074;49.254;6.702;2023-12-20T03:06:35;8.40;;;5.90;;
9950;SDS011;24074;49.254;6.702;2023-12-20T03:09:00;6.83;;;6.13;;
9950;SDS011;24074;49.254;6.702;2023-12-20T03:11:26;6.73;;;6.03;;
9950;SDS011;24074;49.254;6.702;2023-12-20T03:13:52;7.37;;;6.63;;
9950;SDS011;24074;49.254;6.702;2023-12-20T03:16:18;6.47;;;5.80;;
9950;SDS011;24074;49.254;6.702;2023-12-20T03:18:44;7.83;;;6.40;;
9950;SDS011;24074;49.254;6.702;2023-12-20T03:21:09;7.50;;;6.80;;
9950;SDS011;24074;49.254;6.702;2023-12-20T03:23:35;7.20;;;6.50;;
9950;SDS011;24074;49.254;6.702;2023-12-20T03:26:00;7.00;;;6.30;;
9950;SDS011;24074;49.254;6.702;2023-12-20T03:28:26;6.60;;;5.93;;
9950;SDS011;24074;49.254;6.702;2023-12-20T03:30:52;7.53;;;6.67;;
9950;SDS011;24074;49.254;6.702;2023-12-20T03:33:18;6.87;;;6.17;;
9950;SDS011;24074;49.254;6.702;2023-12-20T03:35:44;7.10;;;6.40;;
9950;SDS011;24074;49.254;6.702;2023-12-20T03:38:09;7.50;;;5.93;;
9950;SDS011;24074;49.254;6.702;2023-12-20T03:40:37;6.20;;;5.60;;
9950;SDS011;24074;49.254;6.702;2023-12-20T03:43:03;6.57;;;5.87;;
9950;SDS011;24074;49.254;6.702;2023-12-20T03:45:29;5.73;;;5.23;;
9950;SDS011;24074;49.254;6.702;2023-12-20T03:47:54;6.10;;;5.20;;
9950;SDS011;24074;49.254;6.702;2023-12-20T03:50:24;5.10;;;4.60;;
9950;SDS011;24074;49.254;6.702;2023-12-20T03:52:53;4.80;;;4.30;;
9950;SDS011;24074;49.254;6.702;2023-12-20T03:55:18;5.97;;;4.40;;
9950;SDS011;24074;49.254;6.702;2023-12-20T03:57:44;4.87;;;4.07;;
9950;SDS011;24074;49.254;6.702;2023-12-20T04:00:10;5.33;;;3.80;;
9950;SDS011;24074;49.254;6.702;2023-12-20T04:02:39;4.30;;;3.90;;
9950;SDS011;24074;49.254;6.702;2023-12-20T04:05:06;4.40;;;3.97;;
9950;SDS011;24074;49.254;6.702;2023-12-20T04:07:32;4.37;;;3.97;;
9950;SDS011;24074;49.254;6.702;2023-12-20T04:09:58;4.57;;;4.07;;
9950;SDS011;24074;49.254;6.702;2023-12-20T04:12:24;4.30;;;3.87;;
9950;SDS011;24074;49.254;6.702;2023-12-20T04:14:49;4.03;;;3.50;;
9950;SDS011;24074;49.254;6.702;2023-12-20T04:17:15;4.63;;;4.20;;
9950;SDS011;24074;49.254;6.702;2023-12-20T04:19:41;4.60;;;3.43;;
9950;SDS011;24074;49.254;6.702;2023-12-20T04:22:07;3.93;;;3.60;;
9950;SDS011;24074;49.254;6.702;2023-12-20T04:24:33;4.37;;;3.50;;
9950;SDS011;24074;49.254;6.702;2023-12-20T04:26:58;3.83;;;3.47;;
9950;SDS011;24074;49.254;6.702;2023-12-20T04:29:24;3.70;;;3.40;;
9950;SDS011;24074;49.254;6.702;2023-12-20T04:31:49;3.50;;;2.87;;
9950;SDS011;24074;49.254;6.702;2023-12-20T04:34:16;3.77;;;2.73;;
9950;SDS011;24074;49.254;6.702;2023-12-20T04:36:42;3.53;;;2.50;;
9950;SDS011;24074;49.254;6.702;2023-12-20T04:39:08;4.27;;;2.50;;
9950;SDS011;24074;49.254;6.702;2023-12-20T04:41:34;3.60;;;2.07;;
9950;SDS011;24074;49.254;6.702;2023-12-20T04:44:00;2.33;;;1.93;;
9950;SDS011;24074;49.254;6.702;2023-12-20T04:46:26;3.10;;;1.83;;
9950;SDS011;24074;49.254;6.702;2023-12-20T04:48:51;3.77;;;1.70;;
9950;SDS011;24074;49.254;6.702;2023-12-20T04:51:17;4.53;;;1.70;;
9950;SDS011;24074;49.254;6.702;2023-12-20T04:53:43;6.27;;;1.90;;
9950;SDS011;24074;49.254;6.702;2023-12-20T04:56:08;4.47;;;1.60;;
9950;SDS011;24074;49.254;6.702;2023-12-20T04:58:34;5.40;;;1.60;;
9950;SDS011;24074;49.254;6.702;2023-12-20T05:00:59;5.03;;;1.60;;
9950;SDS011;24074;49.254;6.702;2023-12-20T05:03:25;5.27;;;1.63;;
9950;SDS011;24074;49.254;6.702;2023-12-20T05:05:51;4.17;;;2.00;;
9950;SDS011;24074;49.254;6.702;2023-12-20T05:08:17;3.47;;;1.53;;
9950;SDS011;24074;49.254;6.702;2023-12-20T05:10:42;4.20;;;1.60;;
9950;SDS011;24074;49.254;6.702;2023-12-20T05:13:08;4.10;;;1.43;;
9950;SDS011;24074;49.254;6.702;2023-12-20T05:15:33;4.17;;;1.60;;
9950;SDS011;24074;49.254;6.702;2023-12-20T05:17:59;5.53;;;2.40;;
9950;SDS011;24074;49.254;6.702;2023-12-20T05:20:25;4.23;;;1.60;;
9950;SDS011;24074;49.254;6.702;2023-12-20T05:22:50;5.97;;;2.20;;
9950;SDS011;24074;49.254;6.702;2023-12-20T05:25:16;4.70;;;1.80;;
9950;SDS011;24074;49.254;6.702;2023-12-20T05:27:41;4.47;;;1.80;;
9950;SDS011;24074;49.254;6.702;2023-12-20T05:30:07;2.70;;;1.67;;
9950;SDS011;24074;49.254;6.702;2023-12-20T05:32:33;4.87;;;1.80;;
9950;SDS011;24074;49.254;6.702;2023-12-20T05:34:58;3.87;;;1.60;;
9950;SDS011;24074;49.254;6.702;2023-12-20T05:37:27;3.20;;;1.70;;
9950;SDS011;24074;49.254;6.702;2023-12-20T05:39:53;4.47;;;1.90;;
9950;SDS011;24074;49.254;6.702;2023-12-20T05:42:19;6.83;;;1.73;;
9950;SDS011;24074;49.254;6.702;2023-12-20T05:44:44;5.83;;;1.97;;
9950;SDS011;24074;49.254;6.702;2023-12-20T05:47:10;6.10;;;2.23;;
9950;SDS011;24074;49.254;6.702;2023-12-20T05:49:36;3.30;;;1.87;;
9950;SDS011;24074;49.254;6.702;2023-12-20T05:52:01;3.57;;;1.70;;
9950;SDS011;24074;49.254;6.702;2023-12-20T05:54:27;6.90;;;1.93;;
9950;SDS011;24074;49.254;6.702;2023-12-20T05:56:53;4.80;;;1.80;;
9950;SDS011;24074;49.254;6.702;2023-12-20T05:59:18;5.40;;;2.20;;
9950;SDS011;24074;49.254;6.702;2023-12-20T06:01:44;5.03;;;2.00;;
9950;SDS011;24074;49.254;6.702;2023-12-20T06:04:10;6.93;;;2.10;;
9950;SDS011;24074;49.254;6.702;2023-12-20T06:06:40;2.87;;;1.90;;
9950;SDS011;24074;49.254;6.702;2023-12-20T06:09:08;7.77;;;2.20;;
9950;SDS011;24074;49.254;6.702;2023-12-20T06:11:37;3.13;;;2.00;;
9950;SDS011;24074;49.254;6.702;2023-12-20T06:14:03;2.93;;;2.20;;
9950;SDS011;24074;49.254;6.702;2023-12-20T06:16:28;6.10;;;2.30;;
9950;SDS011;24074;49.254;6.702;2023-12-20T06:18:54;3.90;;;2.30;;
9950;SDS011;24074;49.254;6.702;2023-12-20T06:21:19;4.47;;;2.10;;
9950;SDS011;24074;49.254;6.702;2023-12-20T06:23:46;5.23;;;1.97;;
9950;SDS011;24074;49.254;6.702;2023-12-20T06:26:11;7.00;;;2.33;;
9950;SDS011;24074;49.254;6.702;2023-12-20T06:28:37;7.70;;;2.70;;
9950;SDS011;24074;49.254;6.702;2023-12-20T06:31:02;5.17;;;2.90;;
9950;SDS011;24074;49.254;6.702;2023-12-20T06:33:28;7.30;;;3.30;;
9950;SDS011;24074;49.254;6.702;2023-12-20T06:35:56;6.47;;;2.97;;
9950;SDS011;24074;49.254;6.702;2023-12-20T06:38:22;4.97;;;2.63;;
9950;SDS011;24074;49.254;6.702;2023-12-20T06:40:47;4.53;;;2.83;;
9950;SDS011;24074;49.254;6.702;2023-12-20T06:43:13;6.63;;;2.43;;
9950;SDS011;24074;49.254;6.702;2023-12-20T06:45:38;7.17;;;2.30;;
9950;SDS011;24074;49.254;6.702;2023-12-20T06:48:04;4.53;;;2.60;;
9950;SDS011;24074;49.254;6.702;2023-12-20T06:50:30;4.67;;;2.80;;
9950;SDS011;24074;49.254;6.702;2023-12-20T06:52:56;8.10;;;3.30;;
9950;SDS011;24074;49.254;6.702;2023-12-20T06:55:21;9.37;;;3.40;;
9950;SDS011;24074;49.254;6.702;2023-12-20T06:57:48;8.17;;;3.80;;
9950;SDS011;24074;49.254;6.702;2023-12-20T07:00:13;8.50;;;3.60;;
9950;SDS011;24074;49.254;6.702;2023-12-20T07:02:39;7.23;;;3.20;;
9950;SDS011;24074;49.254;6.702;2023-12-20T07:05:05;9.57;;;3.77;;
9950;SDS011;24074;49.254;6.702;2023-12-20T07:07:31;10.73;;;3.30;;
9950;SDS011;24074;49.254;6.702;2023-12-20T07:09:57;8.37;;;3.83;;
9950;SDS011;24074;49.254;6.702;2023-12-20T07:12:22;9.10;;;4.47;;
9950;SDS011;24074;49.254;6.702;2023-12-20T07:14:48;6.43;;;3.90;;
9950;SDS011;24074;49.254;6.702;2023-12-20T07:17:13;6.43;;;3.63;;
9950;SDS011;24074;49.254;6.702;2023-12-20T07:19:40;6.90;;;3.77;;
9950;SDS011;24074;49.254;6.702;2023-12-20T07:22:06;9.70;;;3.53;;
9950;SDS011;24074;49.254;6.702;2023-12-20T07:24:32;8.63;;;3.50;;
9950;SDS011;24074;49.254;6.702;2023-12-20T07:27:01;8.43;;;3.73;;
9950;SDS011;24074;49.254;6.702;2023-12-20T07:29:27;9.63;;;4.07;;
9950;SDS011;24074;49.254;6.702;2023-12-20T07:31:53;7.03;;;3.67;;
9950;SDS011;24074;49.254;6.702;2023-12-20T07:34:22;7.50;;;4.00;;
9950;SDS011;24074;49.254;6.702;2023-12-20T07:36:48;7.87;;;3.77;;
9950;SDS011;24074;49.254;6.702;2023-12-20T07:39:14;9.27;;;4.57;;
9950;SDS011;24074;49.254;6.702;2023-12-20T07:41:39;10.40;;;4.33;;
9950;SDS011;24074;49.254;6.702;2023-12-20T07:44:06;6.43;;;3.43;;
9950;SDS011;24074;49.254;6.702;2023-12-20T07:46:31;9.00;;;4.13;;
9950;SDS011;24074;49.254;6.702;2023-12-20T07:48:57;10.13;;;3.70;;
9950;SDS011;24074;49.254;6.702;2023-12-20T07:51:23;6.13;;;3.57;;
9950;SDS011;24074;49.254;6.702;2023-12-20T07:53:48;10.93;;;4.20;;
9950;SDS011;24074;49.254;6.702;2023-12-20T07:56:15;6.20;;;3.50;;
9950;SDS011;24074;49.254;6.702;2023-12-20T07:58:41;5.70;;;3.47;;
9950;SDS011;24074;49.254;6.702;2023-12-20T08:01:07;7.93;;;3.93;;
9950;SDS011;24074;49.254;6.702;2023-12-20T08:03:32;10.27;;;4.20;;
9950;SDS011;24074;49.254;6.702;2023-12-20T08:05:58;7.67;;;3.73;;
9950;SDS011;24074;49.254;6.702;2023-12-20T08:08:24;6.63;;;3.93;;
9950;SDS011;24074;49.254;6.702;2023-12-20T08:10:50;9.77;;;3.87;;
9950;SDS011;24074;49.254;6.702;2023-12-20T08:13:15;8.67;;;3.90;;
9950;SDS011;24074;49.254;6.702;2023-12-20T08:15:41;11.17;;;4.23;;
9950;SDS011;24074;49.254;6.702;2023-12-20T08:18:07;8.07;;;3.80;;
9950;SDS011;24074;49.254;6.702;2023-12-20T08:20:32;8.73;;;3.77;;
9950;SDS011;24074;49.254;6.702;2023-12-20T08:22:58;7.27;;;3.60;;
9950;SDS011;24074;49.254;6.702;2023-12-20T08:25:23;5.07;;;3.20;;
9950;SDS011;24074;49.254;6.702;2023-12-20T08:27:49;7.60;;;3.63;;
9950;SDS011;24074;49.254;6.702;2023-12-20T08:30:14;6.23;;;3.60;;
9950;SDS011;24074;49.254;6.702;2023-12-20T08:32:42;8.27;;;3.97;;
9950;SDS011;24074;49.254;6.702;2023-12-20T08:35:08;10.73;;;4.17;;
9950;SDS011;24074;49.254;6.702;2023-12-20T08:37:34;6.40;;;3.47;;
9950;SDS011;24074;49.254;6.702;2023-12-20T08:40:00;7.43;;;3.50;;
9950;SDS011;24074;49.254;6.702;2023-12-20T08:42:26;8.97;;;3.77;;
9950;SDS011;24074;49.254;6.702;2023-12-20T08:44:56;9.03;;;3.80;;
9950;SDS011;24074;49.254;6.702;2023-12-20T08:47:22;9.40;;;3.77;;
9950;SDS011;24074;49.254;6.702;2023-12-20T08:49:48;7.47;;;3.70;;
9950;SDS011;24074;49.254;6.702;2023-12-20T08:52:13;5.93;;;3.80;;
9950;SDS011;24074;49.254;6.702;2023-12-20T08:54:39;9.73;;;3.83;;
9950;SDS011;24074;49.254;6.702;2023-12-20T08:57:07;8.73;;;3.73;;
9950;SDS011;24074;49.254;6.702;2023-12-20T08:59:33;8.63;;;4.13;;
9950;SDS011;24074;49.254;6.702;2023-12-20T09:01:58;8.20;;;4.27;;
9950;SDS011;24074;49.254;6.702;2023-12-20T09:04:24;7.57;;;3.63;;
9950;SDS011;24074;49.254;6.702;2023-12-20T09:06:50;7.23;;;3.67;;
9950;SDS011;24074;49.254;6.702;2023-12-20T09:09:16;9.00;;;3.73;;
9950;SDS011;24074;49.254;6.702;2023-12-20T09:11:41;8.57;;;3.73;;
9950;SDS011;24074;49.254;6.702;2023-12-20T09:14:07;9.50;;;3.87;;
9950;SDS011;24074;49.254;6.702;2023-12-20T09:16:33;7.10;;;3.27;;
9950;SDS011;24074;49.254;6.702;2023-12-20T09:18:58;9.50;;;3.50;;
9950;SDS011;24074;49.254;6.702;2023-12-20T09:21:24;9.77;;;3.60;;
9950;SDS011;24074;49.254;6.702;2023-12-20T09:23:49;11.10;;;3.77;;
9950;SDS011;24074;49.254;6.702;2023-12-20T09:26:15;9.77;;;3.63;;
9950;SDS011;24074;49.254;6.702;2023-12-20T09:28:41;9.90;;;3.67;;
9950;SDS011;24074;49.254;6.702;2023-12-20T09:31:06;10.07;;;3.77;;
9950;SDS011;24074;49.254;6.702;2023-12-20T09:33:32;5.90;;;3.27;;
9950;SDS011;24074;49.254;6.702;2023-12-20T09:35:58;10.27;;;3.50;;
9950;SDS011;24074;49.254;6.702;2023-12-20T09:38:24;7.37;;;3.50;;
9950;SDS011;24074;49.254;6.702;2023-12-20T09:40:50;12.73;;;4.13;;
9950;SDS011;24074;49.254;6.702;2023-12-20T09:43:15;9.03;;;3.60;;
9950;SDS011;24074;49.254;6.702;2023-12-20T09:45:45;7.73;;;3.60;;
9950;SDS011;24074;49.254;6.702;2023-12-20T09:48:12;8.80;;;3.60;;
9950;SDS011;24074;49.254;6.702;2023-12-20T09:50:39;9.70;;;3.33;;
9950;SDS011;24074;49.254;6.702;2023-12-20T09:53:05;7.93;;;3.20;;
9950;SDS011;24074;49.254;6.702;2023-12-20T09:55:34;8.70;;;3.00;;
9950;SDS011;24074;49.254;6.702;2023-12-20T09:58:01;7.40;;;3.43;;
9950;SDS011;24074;49.254;6.702;2023-12-20T10:00:26;10.53;;;3.93;;
9950;SDS011;24074;49.254;6.702;2023-12-20T10:05:28;7.40;;;3.27;;
9950;SDS011;24074;49.254;6.702;2023-12-20T10:07:55;10.13;;;3.37;;
9950;SDS011;24074;49.254;6.702;2023-12-20T10:10:21;10.53;;;3.40;;
9950;SDS011;24074;49.254;6.702;2023-12-20T10:13:06;13.83;;;3.43;;
9950;SDS011;24074;49.254;6.702;2023-12-20T10:15:33;8.73;;;3.87;;
9950;SDS011;24074;49.254;6.702;2023-12-20T10:17:59;9.73;;;3.60;;
9950;SDS011;24074;49.254;6.702;2023-12-20T10:20:26;8.53;;;3.20;;
9950;SDS011;24074;49.254;6.702;2023-12-20T10:22:54;6.60;;;2.77;;
9950;SDS011;24074;49.254;6.702;2023-12-20T10:25:21;7.03;;;3.30;;
9950;SDS011;24074;49.254;6.702;2023-12-20T10:27:47;11.40;;;3.10;;
9950;SDS011;24074;49.254;6.702;2023-12-20T10:30:13;8.70;;;3.20;;
9950;SDS011;24074;49.254;6.702;2023-12-20T10:32:39;6.83;;;2.23;;
9950;SDS011;24074;49.254;6.702;2023-12-20T10:35:05;6.00;;;2.60;;
9950;SDS011;24074;49.254;6.702;2023-12-20T10:37:35;9.67;;;2.80;;
9950;SDS011;24074;49.254;6.702;2023-12-20T10:40:01;5.90;;;2.20;;
9950;SDS011;24074;49.254;6.702;2023-12-20T10:42:30;6.47;;;2.30;;
9950;SDS011;24074;49.254;6.702;2023-12-20T10:44:58;8.13;;;2.47;;
9950;SDS011;24074;49.254;6.702;2023-12-20T10:47:25;8.13;;;2.33;;
9950;SDS011;24074;49.254;6.702;2023-12-20T10:49:53;6.53;;;2.20;;
9950;SDS011;24074;49.254;6.702;2023-12-20T10:52:21;7.33;;;2.00;;
9950;SDS011;24074;49.254;6.702;2023-12-20T10:54:52;5.20;;;2.00;;
9950;SDS011;24074;49.254;6.702;2023-12-20T10:57:18;9.40;;;2.73;;
9950;SDS011;24074;49.254;6.702;2023-12-20T10:59:44;6.13;;;2.30;;
9950;SDS011;24074;49.254;6.702;2023-12-20T11:02:14;6.30;;;2.17;;
9950;SDS011;24074;49.254;6.702;2023-12-20T11:07:32;9.37;;;2.43;;
9950;SDS011;24074;49.254;6.702;2023-12-20T11:12:42;8.30;;;2.50;;
9950;SDS011;24074;49.254;6.702;2023-12-20T11:15:16;8.60;;;2.90;;
9950;SDS011;24074;49.254;6.702;2023-12-20T11:17:46;6.83;;;2.50;;
9950;SDS011;24074;49.254;6.702;2023-12-20T11:20:19;7.70;;;2.57;;
9950;SDS011;24074;49.254;6.702;2023-12-20T11:22:52;6.33;;;2.27;;
9950;SDS011;24074;49.254;6.702;2023-12-20T11:25:19;8.67;;;2.80;;
9950;SDS011;24074;49.254;6.702;2023-12-20T11:27:46;8.33;;;2.80;;
9950;SDS011;24074;49.254;6.702;2023-12-20T11:30:46;6.63;;;2.40;;
9950;SDS011;24074;49.254;6.702;2023-12-20T11:33:14;6.57;;;2.60;;
9950;SDS011;24074;49.254;6.702;2023-12-20T11:35:41;5.30;;;2.40;;
9950;SDS011;24074;49.254;6.702;2023-12-20T11:38:10;6.80;;;2.50;;
9950;SDS011;24074;49.254;6.702;2023-12-20T11:40:36;8.57;;;2.73;;
9950;SDS011;24074;49.254;6.702;2023-12-20T11:43:02;6.90;;;2.40;;
9950;SDS011;24074;49.254;6.702;2023-12-20T11:45:28;5.47;;;2.20;;
9950;SDS011;24074;49.254;6.702;2023-12-20T11:47:54;6.37;;;2.23;;
9950;SDS011;24074;49.254;6.702;2023-12-20T11:50:22;8.93;;;2.90;;
9950;SDS011;24074;49.254;6.702;2023-12-20T11:52:49;8.00;;;2.50;;
9950;SDS011;24074;49.254;6.702;2023-12-20T11:55:16;13.43;;;2.63;;
9950;SDS011;24074;49.254;6.702;2023-12-20T11:57:44;9.50;;;2.77;;
9950;SDS011;24074;49.254;6.702;2023-12-20T12:00:10;6.97;;;2.30;;
9950;SDS011;24074;49.254;6.702;2023-12-20T12:02:36;8.30;;;2.17;;
9950;SDS011;24074;49.254;6.702;2023-12-20T12:05:01;9.57;;;2.67;;
9950;SDS011;24074;49.254;6.702;2023-12-20T12:07:30;9.57;;;2.63;;
9950;SDS011;24074;49.254;6.702;2023-12-20T12:09:55;7.83;;;2.30;;
9950;SDS011;24074;49.254;6.702;2023-12-20T12:12:21;8.30;;;2.33;;
9950;SDS011;24074;49.254;6.702;2023-12-20T12:14:47;10.53;;;2.40;;
9950;SDS011;24074;49.254;6.702;2023-12-20T12:17:14;6.07;;;2.13;;
9950;SDS011;24074;49.254;6.702;2023-12-20T12:19:40;8.73;;;2.30;;
9950;SDS011;24074;49.254;6.702;2023-12-20T12:22:10;6.20;;;2.30;;
9950;SDS011;24074;49.254;6.702;2023-12-20T12:24:42;6.17;;;2.57;;
9950;SDS011;24074;49.254;6.702;2023-12-20T12:27:09;9.83;;;3.03;;
9950;SDS011;24074;49.254;6.702;2023-12-20T12:29:35;9.47;;;2.30;;
9950;SDS011;24074;49.254;6.702;2023-12-20T12:32:08;10.00;;;2.70;;
9950;SDS011;24074;49.254;6.702;2023-12-20T12:34:34;9.73;;;2.60;;
9950;SDS011;24074;49.254;6.702;2023-12-20T12:37:01;8.33;;;2.57;;
9950;SDS011;24074;49.254;6.702;2023-12-20T12:39:29;7.43;;;2.50;;
9950;SDS011;24074;49.254;6.702;2023-12-20T12:41:55;9.17;;;2.33;;
9950;SDS011;24074;49.254;6.702;2023-12-20T12:44:22;8.83;;;2.60;;
9950;SDS011;24074;49.254;6.702;2023-12-20T12:46:49;7.87;;;2.50;;
9950;SDS011;24074;49.254;6.702;2023-12-20T12:49:16;8.07;;;2.40;;
9950;SDS011;24074;49.254;6.702;2023-12-20T12:51:42;9.07;;;2.40;;
9950;SDS011;24074;49.254;6.702;2023-12-20T12:54:08;9.03;;;2.70;;
9950;SDS011;24074;49.254;6.702;2023-12-20T12:56:35;6.97;;;2.67;;
9950;SDS011;24074;49.254;6.702;2023-12-20T12:59:01;10.27;;;3.43;;
9950;SDS011;24074;49.254;6.702;2023-12-20T13:01:27;10.67;;;2.50;;
9950;SDS011;24074;49.254;6.702;2023-12-20T13:03:52;8.03;;;2.70;;
9950;SDS011;24074;49.254;6.702;2023-12-20T13:06:19;5.27;;;2.77;;
9950;SDS011;24074;49.254;6.702;2023-12-20T13:08:45;6.67;;;2.50;;
9950;SDS011;24074;49.254;6.702;2023-12-20T13:11:10;12.10;;;5.90;;
9950;SDS011;24074;49.254;6.702;2023-12-20T13:13:36;11.47;;;8.10;;
9950;SDS011;24074;49.254;6.702;2023-12-20T13:16:02;10.33;;;7.90;;
9950;SDS011;24074;49.254;6.702;2023-12-20T13:18:27;11.87;;;3.23;;
9950;SDS011;24074;49.254;6.702;2023-12-20T13:20:53;13.17;;;4.33;;
9950;SDS011;24074;49.254;6.702;2023-12-20T13:23:19;10.77;;;4.80;;
9950;SDS011;24074;49.254;6.702;2023-12-20T13:25:44;12.50;;;6.00;;
9950;SDS011;24074;49.254;6.702;2023-12-20T13:28:11;10.50;;;4.70;;
9950;SDS011;24074;49.254;6.702;2023-12-20T13:30:38;10.63;;;3.50;;
9950;SDS011;24074;49.254;6.702;2023-12-20T13:33:04;8.77;;;2.30;;
9950;SDS011;24074;49.254;6.702;2023-12-20T13:35:30;7.83;;;2.77;;
9950;SDS011;24074;49.254;6.702;2023-12-20T13:37:56;8.80;;;3.23;;
9950;SDS011;24074;49.254;6.702;2023-12-20T13:40:22;8.03;;;2.80;;
9950;SDS011;24074;49.254;6.702;2023-12-20T13:42:48;8.93;;;2.53;;
9950;SDS011;24074;49.254;6.702;2023-12-20T13:45:13;10.33;;;3.53;;
9950;SDS011;24074;49.254;6.702;2023-12-20T13:47:39;10.50;;;4.20;;
9950;SDS011;24074;49.254;6.702;2023-12-20T13:50:08;9.73;;;4.60;;
9950;SDS011;24074;49.254;6.702;2023-12-20T13:52:34;12.43;;;3.40;;
9950;SDS011;24074;49.254;6.702;2023-12-20T13:55:00;11.53;;;3.47;;
9950;SDS011;24074;49.254;6.702;2023-12-20T13:57:25;10.13;;;3.77;;
9950;SDS011;24074;49.254;6.702;2023-12-20T13:59:51;11.93;;;3.60;;
9950;SDS011;24074;49.254;6.702;2023-12-20T14:02:16;10.53;;;3.00;;
9950;SDS011;24074;49.254;6.702;2023-12-20T14:04:42;7.87;;;3.07;;
9950;SDS011;24074;49.254;6.702;2023-12-20T14:07:08;8.00;;;2.97;;
9950;SDS011;24074;49.254;6.702;2023-12-20T14:09:35;7.00;;;2.80;;
9950;SDS011;24074;49.254;6.702;2023-12-20T14:12:00;5.57;;;2.77;;
9950;SDS011;24074;49.254;6.702;2023-12-20T14:14:26;9.57;;;2.67;;
9950;SDS011;24074;49.254;6.702;2023-12-20T14:16:51;14.13;;;2.93;;
9950;SDS011;24074;49.254;6.702;2023-12-20T14:19:17;9.57;;;3.00;;
9950;SDS011;24074;49.254;6.702;2023-12-20T14:21:43;7.47;;;2.70;;
9950;SDS011;24074;49.254;6.702;2023-12-20T14:24:10;9.33;;;3.33;;
9950;SDS011;24074;49.254;6.702;2023-12-20T14:26:40;8.63;;;2.90;;
9950;SDS011;24074;49.254;6.702;2023-12-20T14:29:05;8.40;;;3.00;;
9950;SDS011;24074;49.254;6.702;2023-12-20T14:31:35;12.70;;;3.20;;
9950;SDS011;24074;49.254;6.702;2023-12-20T14:34:03;9.87;;;3.07;;
9950;SDS011;24074;49.254;6.702;2023-12-20T14:36:29;7.97;;;2.97;;
9950;SDS011;24074;49.254;6.702;2023-12-20T14:38:58;9.97;;;3.27;;
9950;SDS011;24074;49.254;6.702;2023-12-20T14:41:24;9.77;;;3.30;;
9950;SDS011;24074;49.254;6.702;2023-12-20T14:43:50;12.97;;;3.50;;
9950;SDS011;24074;49.254;6.702;2023-12-20T14:46:19;13.67;;;4.70;;
9950;SDS011;24074;49.254;6.702;2023-12-20T14:48:45;12.03;;;5.77;;
9950;SDS011;24074;49.254;6.702;2023-12-20T14:51:11;11.63;;;5.10;;
9950;SDS011;24074;49.254;6.702;2023-12-20T14:53:38;16.13;;;4.90;;
9950;SDS011;24074;49.254;6.702;2023-12-20T14:56:04;13.73;;;4.73;;
9950;SDS011;24074;49.254;6.702;2023-12-20T14:58:30;12.03;;;5.00;;
9950;SDS011;24074;49.254;6.702;2023-12-20T15:00:56;12.37;;;4.20;;
9950;SDS011;24074;49.254;6.702;2023-12-20T15:03:22;10.17;;;4.93;;